createdAt,value
2023-03-17T00:00:45.981Z,12.10
2023-03-17T00:03:23.145Z,12.10
2023-03-17T00:05:51.058Z,12.00
2023-03-17T00:08:27.838Z,12.00
2023-03-17T00:10:55.205Z,12.00
2023-03-17T00:13:24.193Z,12.00
2023-03-17T00:16:03.186Z,11.90
2023-03-17T00:18:32.001Z,11.90
2023-03-17T00:20:59.882Z,11.90
2023-03-17T00:23:26.957Z,11.90
2023-03-17T00:25:54.951Z,11.90
2023-03-17T00:28:24.798Z,11.80
2023-03-17T00:31:01.138Z,11.80
2023-03-17T00:33:30.362Z,11.80
2023-03-17T00:35:58.570Z,11.80
2023-03-17T00:38:26.699Z,11.80
2023-03-17T00:40:54.297Z,11.80
2023-03-17T00:43:22.283Z,11.80
2023-03-17T00:45:51.108Z,11.80
2023-03-17T00:48:21.375Z,11.90
2023-03-17T00:50:50.990Z,11.80
2023-03-17T00:53:22.328Z,11.80
2023-03-17T00:55:50.274Z,11.70
2023-03-17T00:58:28.898Z,11.80
2023-03-17T01:00:57.769Z,11.80
2023-03-17T01:03:25.529Z,11.80
2023-03-17T01:05:58.761Z,11.80
2023-03-17T01:08:28.005Z,11.70
2023-03-17T01:10:56.733Z,11.70
2023-03-17T01:13:24.369Z,11.70
2023-03-17T01:15:52.452Z,11.60
2023-03-17T01:18:21.444Z,11.60
2023-03-17T01:20:48.855Z,11.60
2023-03-17T01:23:17.935Z,11.60
2023-03-17T01:25:45.788Z,11.60
2023-03-17T01:28:15.968Z,11.50
2023-03-17T01:30:45.276Z,11.50
2023-03-17T01:33:14.553Z,11.40
2023-03-17T01:35:43.968Z,11.50
2023-03-17T01:38:12.706Z,11.40
2023-03-17T01:40:49.816Z,11.50
2023-03-17T01:43:29.662Z,11.50
2023-03-17T01:46:34.619Z,11.50
2023-03-17T01:49:14.468Z,11.40
2023-03-17T01:52:01.671Z,11.50
2023-03-17T01:54:36.053Z,11.50
2023-03-17T01:57:14.776Z,11.40
2023-03-17T01:59:50.310Z,11.50
2023-03-17T02:02:24.648Z,11.50
2023-03-17T02:04:52.816Z,11.50
2023-03-17T02:07:22.208Z,11.40
2023-03-17T02:09:49.705Z,11.40
2023-03-17T02:12:24.642Z,11.40
2023-03-17T02:14:52.844Z,11.40
2023-03-17T02:17:22.997Z,11.40
2023-03-17T02:19:50.573Z,11.40
2023-03-17T02:22:19.179Z,11.40
2023-03-17T02:24:55.823Z,11.40
2023-03-17T02:27:34.913Z,11.40
2023-03-17T02:30:08.104Z,11.40
2023-03-17T02:32:36.598Z,11.40
2023-03-17T02:35:05.255Z,11.40
2023-03-17T02:37:32.978Z,11.40
2023-03-17T02:40:01.740Z,11.30
2023-03-17T02:42:54.211Z,11.30
2023-03-17T02:45:23.693Z,11.30
2023-03-17T02:47:51.949Z,11.20
2023-03-17T02:50:25.422Z,11.20
2023-03-17T02:52:52.450Z,11.20
2023-03-17T02:55:19.674Z,11.20
2023-03-17T02:57:46.618Z,11.20
2023-03-17T03:00:15.952Z,11.20
2023-03-17T03:02:44.078Z,11.10
2023-03-17T03:05:12.787Z,11.10
2023-03-17T03:07:39.796Z,11.10
2023-03-17T03:10:14.813Z,11.00
2023-03-17T03:12:41.966Z,11.00
2023-03-17T03:15:10.029Z,11.00
2023-03-17T03:17:37.001Z,11.00
2023-03-17T03:20:07.326Z,10.90
2023-03-17T03:22:34.341Z,11.00
2023-03-17T03:25:02.410Z,11.00
2023-03-17T03:27:29.639Z,11.00
2023-03-17T03:29:57.168Z,11.00
2023-03-17T03:32:26.409Z,11.00
2023-03-17T03:34:54.597Z,10.90
2023-03-17T03:37:21.854Z,10.90
2023-03-17T03:39:49.769Z,11.00
2023-03-17T03:42:16.877Z,11.00
2023-03-17T03:44:43.979Z,10.90
2023-03-17T03:47:12.086Z,11.00
2023-03-17T03:49:39.032Z,11.00
2023-03-17T03:52:06.691Z,11.00
2023-03-17T03:54:35.162Z,11.00
2023-03-17T03:57:02.149Z,11.10
2023-03-17T03:59:30.619Z,11.00
2023-03-17T04:01:58.607Z,11.00
2023-03-17T04:04:32.700Z,11.00
2023-03-17T04:07:01.496Z,11.00
2023-03-17T04:09:29.473Z,11.10
2023-03-17T04:11:56.456Z,11.00
2023-03-17T04:14:23.348Z,11.00
2023-03-17T04:16:50.490Z,11.00
2023-03-17T04:19:17.497Z,10.90
2023-03-17T04:21:44.594Z,11.00
2023-03-17T04:24:11.779Z,11.00
2023-03-17T04:26:38.969Z,11.00
2023-03-17T04:29:08.036Z,10.90
2023-03-17T04:31:36.832Z,11.00
2023-03-17T04:34:03.795Z,10.90
2023-03-17T04:36:32.768Z,10.80
2023-03-17T04:38:59.635Z,10.80
2023-03-17T04:41:26.533Z,10.70
2023-03-17T04:43:54.476Z,10.70
2023-03-17T04:46:21.386Z,10.70
2023-03-17T04:48:49.243Z,10.70
2023-03-17T04:51:17.088Z,10.70
2023-03-17T04:53:44.874Z,10.60
2023-03-17T04:56:12.255Z,10.60
2023-03-17T04:58:41.269Z,10.60
2023-03-17T05:01:08.733Z,10.60
2023-03-17T05:03:35.819Z,10.50
2023-03-17T05:06:03.747Z,10.50
2023-03-17T05:08:31.578Z,10.50
2023-03-17T05:11:00.106Z,10.60
2023-03-17T05:13:27.624Z,10.40
2023-03-17T05:15:58.002Z,10.50
2023-03-17T05:18:27.300Z,10.50
2023-03-17T05:20:58.082Z,10.50
2023-03-17T05:23:26.050Z,10.50
2023-03-17T05:25:53.900Z,10.50
2023-03-17T05:28:24.852Z,10.50
2023-03-17T05:30:54.363Z,10.50
2023-03-17T05:33:23.197Z,10.40
2023-03-17T05:35:52.134Z,10.40
2023-03-17T05:38:21.269Z,10.40
2023-03-17T05:40:51.012Z,10.40
2023-03-17T05:43:18.008Z,10.50
2023-03-17T05:45:45.608Z,10.50
2023-03-17T05:48:13.482Z,10.50
2023-03-17T05:50:41.673Z,10.50
2023-03-17T05:53:09.734Z,10.50
2023-03-17T05:55:36.929Z,10.50
2023-03-17T05:58:05.907Z,10.50
2023-03-17T06:00:33.907Z,10.40
2023-03-17T06:03:04.274Z,10.50
2023-03-17T06:05:32.292Z,10.50
2023-03-17T06:08:02.422Z,10.50
2023-03-17T06:10:32.916Z,10.50
2023-03-17T06:13:03.773Z,10.50
2023-03-17T06:15:34.608Z,10.50
2023-03-17T06:18:02.771Z,10.60
2023-03-17T06:20:30.150Z,10.60
2023-03-17T06:23:04.530Z,10.60
2023-03-17T06:25:37.169Z,10.60
2023-03-17T06:28:08.787Z,10.60
2023-03-17T06:30:40.832Z,10.60
2023-03-17T06:33:12.976Z,10.60
2023-03-17T06:35:43.092Z,10.70
2023-03-17T06:38:12.830Z,10.70
2023-03-17T06:40:41.398Z,10.80
2023-03-17T06:43:08.467Z,10.80
2023-03-17T06:45:37.474Z,10.80
2023-03-17T06:48:04.728Z,10.90
2023-03-17T06:50:39.344Z,10.90
2023-03-17T06:53:08.129Z,10.90
2023-03-17T06:55:36.098Z,11.00
2023-03-17T06:58:03.272Z,11.00
2023-03-17T07:00:30.731Z,11.00
2023-03-17T07:02:59.691Z,11.00
2023-03-17T07:05:29.208Z,11.10
2023-03-17T07:08:24.607Z,11.10
2023-03-17T07:10:54.738Z,11.10
2023-03-17T07:13:47.626Z,11.20
2023-03-17T07:16:17.922Z,11.20
2023-03-17T07:18:46.692Z,11.30
2023-03-17T07:21:20.933Z,11.30
2023-03-17T07:24:05.730Z,11.40
2023-03-17T07:27:03.522Z,11.50
2023-03-17T07:29:34.491Z,11.40
2023-03-17T07:32:19.526Z,11.40
2023-03-17T07:34:49.548Z,11.50
2023-03-17T07:37:25.656Z,11.60
2023-03-17T07:39:57.637Z,11.80
2023-03-17T07:42:26.323Z,11.90
2023-03-17T07:44:59.281Z,12.10
2023-03-17T07:50:16.239Z,12.40
2023-03-17T07:52:44.699Z,12.50
2023-03-17T07:55:41.349Z,12.60
2023-03-17T07:58:15.837Z,12.90
2023-03-17T08:00:43.610Z,13.00
2023-03-17T08:03:12.736Z,12.90
2023-03-17T08:05:45.450Z,13.00
2023-03-17T08:08:15.218Z,13.10
2023-03-17T08:10:42.143Z,13.20
2023-03-17T08:13:10.117Z,13.20
2023-03-17T08:15:38.141Z,13.10
2023-03-17T08:18:05.098Z,13.20
2023-03-17T08:20:35.341Z,13.20
2023-03-17T08:23:03.771Z,13.10
2023-03-17T08:25:32.176Z,13.00
2023-03-17T08:28:04.790Z,13.00
2023-03-17T08:30:33.991Z,12.90
2023-03-17T08:33:04.700Z,13.00
2023-03-17T08:35:35.111Z,13.00
2023-03-17T08:38:03.019Z,13.00
2023-03-17T08:40:32.355Z,12.90
2023-03-17T08:43:04.986Z,12.90
2023-03-17T08:45:36.373Z,13.00
2023-03-17T08:48:05.331Z,13.00
2023-03-17T08:50:36.098Z,13.10
2023-03-17T08:53:04.472Z,13.20
2023-03-17T08:55:33.344Z,13.30
2023-03-17T08:58:02.884Z,13.40
2023-03-17T09:00:30.233Z,13.30
2023-03-17T09:03:00.446Z,13.30
2023-03-17T09:05:31.636Z,13.30
2023-03-17T09:08:02.716Z,13.40
2023-03-17T09:10:32.176Z,13.50
2023-03-17T09:13:04.623Z,13.60
2023-03-17T09:15:34.101Z,13.70
2023-03-17T09:18:02.155Z,13.70
2023-03-17T09:20:32.369Z,13.50
2023-03-17T09:23:09.269Z,13.30
2023-03-17T09:25:39.912Z,13.20
2023-03-17T09:28:07.293Z,13.10
2023-03-17T09:30:44.013Z,13.00
2023-03-17T09:33:13.531Z,13.10
2023-03-17T09:35:41.709Z,13.10
2023-03-17T09:38:09.465Z,13.10
2023-03-17T09:40:49.841Z,13.10
2023-03-17T09:43:33.147Z,13.30
2023-03-17T09:46:23.025Z,13.60
2023-03-17T09:49:21.193Z,13.60
2023-03-17T09:51:51.796Z,13.70
2023-03-17T09:54:34.869Z,13.90
2023-03-17T09:57:18.670Z,13.80
2023-03-17T10:02:39.402Z,13.90
2023-03-17T10:05:27.969Z,14.00
2023-03-17T10:08:29.574Z,14.10
2023-03-17T10:11:23.529Z,14.20
2023-03-17T10:14:08.482Z,14.40
2023-03-17T10:17:19.716Z,14.50
2023-03-17T10:20:08.551Z,14.70
2023-03-17T10:22:56.464Z,14.90
2023-03-17T10:25:32.006Z,15.00
2023-03-17T10:28:08.757Z,15.30
2023-03-17T10:30:37.374Z,15.40
2023-03-17T10:33:07.337Z,15.60
2023-03-17T10:35:38.604Z,15.70
2023-03-17T10:38:20.359Z,15.60
2023-03-17T10:41:07.659Z,15.50
2023-03-17T10:43:50.034Z,15.70
2023-03-17T10:46:38.191Z,16.00
2023-03-17T10:49:16.634Z,15.90
2023-03-17T10:51:46.791Z,15.90
2023-03-17T10:54:18.971Z,15.90
2023-03-17T10:57:01.607Z,16.10
2023-03-17T10:59:37.821Z,16.20
2023-03-17T11:02:21.139Z,16.30
2023-03-17T11:04:48.489Z,16.40
2023-03-17T11:07:40.803Z,16.40
2023-03-17T11:10:20.371Z,16.40
2023-03-17T11:12:54.300Z,16.60
2023-03-17T11:15:22.838Z,16.70
2023-03-17T11:18:02.129Z,16.80
2023-03-17T11:20:42.179Z,17.00
2023-03-17T11:23:38.833Z,17.30
2023-03-17T11:26:17.810Z,17.40
2023-03-17T11:28:56.655Z,17.50
2023-03-17T11:31:39.424Z,17.30
2023-03-17T11:34:20.161Z,17.30
2023-03-17T11:36:58.725Z,17.50
2023-03-17T11:39:54.402Z,17.60
2023-03-17T11:42:48.807Z,17.90
2023-03-17T11:45:32.021Z,18.30
2023-03-17T11:48:14.011Z,18.40
2023-03-17T11:51:00.169Z,18.20
2023-03-17T11:53:36.697Z,18.30
2023-03-17T11:56:33.600Z,18.10
2023-03-17T11:59:34.425Z,18.10
2023-03-17T12:02:20.130Z,18.30
2023-03-17T12:05:05.166Z,18.20
2023-03-17T12:07:40.162Z,18.30
2023-03-17T12:10:28.809Z,18.40
2023-03-17T12:13:07.483Z,18.30
2023-03-17T12:15:44.162Z,18.60
2023-03-17T12:18:33.259Z,18.80
2023-03-17T12:21:32.852Z,19.10
2023-03-17T12:24:21.150Z,18.90
2023-03-17T12:27:14.455Z,19.00
2023-03-17T12:32:53.551Z,19.10
2023-03-17T12:35:35.407Z,19.50
2023-03-17T12:38:09.787Z,20.00
2023-03-17T12:40:45.939Z,19.90
2023-03-17T12:43:42.390Z,20.20
2023-03-17T12:46:20.575Z,20.30
2023-03-17T12:49:17.015Z,20.70
2023-03-17T12:52:07.634Z,21.00
2023-03-17T12:54:37.128Z,21.10
2023-03-17T12:57:21.062Z,21.10
2023-03-17T12:59:54.712Z,21.30
2023-03-17T13:02:28.034Z,21.30
2023-03-17T13:05:01.104Z,20.80
2023-03-17T13:07:53.904Z,20.70
2023-03-17T13:10:40.126Z,20.80
2023-03-17T13:13:40.647Z,20.80
2023-03-17T13:16:27.003Z,21.00
2023-03-17T13:19:15.742Z,20.90
2023-03-17T13:21:57.928Z,21.00
2023-03-17T13:24:53.031Z,20.70
2023-03-17T13:27:32.996Z,20.40
2023-03-17T13:30:22.107Z,20.20
2023-03-17T13:33:03.730Z,20.20
2023-03-17T13:35:45.315Z,20.10
2023-03-17T13:38:29.630Z,20.10
2023-03-17T13:41:33.778Z,20.10
2023-03-17T13:44:08.083Z,19.80
2023-03-17T13:46:55.322Z,19.40
2023-03-17T13:49:36.732Z,19.40
2023-03-17T13:52:22.500Z,19.50
2023-03-17T13:55:02.401Z,19.40
2023-03-17T13:57:38.942Z,19.20
2023-03-17T14:03:10.409Z,19.20
2023-03-17T14:05:39.625Z,19.10
2023-03-17T14:08:17.642Z,19.30
2023-03-17T14:10:54.298Z,19.30
2023-03-17T14:13:25.667Z,19.20
2023-03-17T14:16:12.716Z,19.10
2023-03-17T14:18:43.913Z,19.00
2023-03-17T14:21:27.386Z,18.60
2023-03-17T14:23:59.415Z,18.50
2023-03-17T14:26:30.289Z,18.50
2023-03-17T14:29:05.062Z,18.50
2023-03-17T14:31:32.263Z,18.50
2023-03-17T14:34:02.260Z,18.50
2023-03-17T14:36:33.873Z,18.60
2023-03-17T14:39:01.237Z,18.50
2023-03-17T14:41:31.194Z,18.20
2023-03-17T14:44:00.673Z,18.30
2023-03-17T14:46:38.834Z,18.30
2023-03-17T14:49:21.010Z,18.30
2023-03-17T14:51:53.395Z,18.10
2023-03-17T14:54:34.823Z,18.20
2023-03-17T14:57:07.564Z,18.10
2023-03-17T14:59:43.599Z,18.10
2023-03-17T15:02:24.539Z,18.20
2023-03-17T15:05:02.881Z,18.30
2023-03-17T15:07:42.367Z,18.40
2023-03-17T15:10:17.889Z,18.50
2023-03-17T15:12:49.217Z,18.20
2023-03-17T15:15:21.595Z,18.10
2023-03-17T15:17:55.772Z,18.00
2023-03-17T15:20:27.654Z,17.80
2023-03-17T15:23:37.014Z,17.90
2023-03-17T15:26:27.484Z,17.90
2023-03-17T15:29:07.397Z,17.90
2023-03-17T15:31:34.743Z,17.70
2023-03-17T15:34:02.699Z,17.70
2023-03-17T15:39:13.120Z,17.80
2023-03-17T15:41:40.285Z,17.60
2023-03-17T15:44:17.268Z,17.50
2023-03-17T15:46:48.029Z,17.60
2023-03-17T15:49:18.486Z,17.60
2023-03-17T15:51:45.607Z,17.50
2023-03-17T15:54:15.223Z,17.50
2023-03-17T15:56:44.281Z,17.50
2023-03-17T15:59:13.733Z,17.30
2023-03-17T16:01:41.298Z,17.20
2023-03-17T16:04:11.341Z,17.10
2023-03-17T16:06:39.496Z,17.10
2023-03-17T16:09:30.224Z,17.20
2023-03-17T16:12:03.486Z,17.20
2023-03-17T16:14:31.520Z,17.10
2023-03-17T16:17:09.289Z,16.90
2023-03-17T16:19:51.085Z,16.80
2023-03-17T16:22:41.786Z,16.70
2023-03-17T16:31:32.849Z,16.60
2023-03-17T16:34:22.194Z,16.70
2023-03-17T16:36:54.587Z,16.70
2023-03-17T16:39:26.334Z,16.60
2023-03-17T16:42:03.308Z,16.40
2023-03-17T16:44:42.197Z,16.40
2023-03-17T16:47:25.796Z,16.40
2023-03-17T16:55:34.077Z,16.30
2023-03-17T16:58:44.970Z,16.30
2023-03-17T17:01:31.630Z,16.30
2023-03-17T17:07:18.134Z,16.30
2023-03-17T17:09:55.539Z,16.30
2023-03-17T17:12:28.879Z,16.30
2023-03-17T17:15:01.746Z,16.20
2023-03-17T17:20:27.208Z,16.20
2023-03-17T17:23:00.718Z,16.10
2023-03-17T17:28:19.465Z,16.00
2023-03-17T17:30:48.731Z,16.00
2023-03-17T17:36:17.734Z,16.10
2023-03-17T17:38:48.861Z,16.10
2023-03-17T17:41:23.781Z,16.10
2023-03-17T17:43:58.992Z,16.10
2023-03-17T17:49:24.762Z,16.10
2023-03-17T17:52:47.611Z,16.00
2023-03-17T17:58:05.335Z,15.80
2023-03-17T18:00:51.252Z,15.80
2023-03-17T18:03:32.209Z,15.70
2023-03-17T18:09:09.982Z,15.60
2023-03-17T18:11:41.508Z,15.70
2023-03-17T18:14:15.493Z,15.60
2023-03-17T18:16:45.859Z,15.70
2023-03-17T18:19:14.913Z,15.60
2023-03-17T18:21:47.797Z,15.50
2023-03-17T18:27:52.442Z,15.50
2023-03-17T18:46:10.486Z,15.40
2023-03-17T18:52:49.075Z,15.50
2023-03-17T18:55:34.447Z,15.50
2023-03-17T19:07:11.908Z,15.40
2023-03-17T19:14:15.073Z,15.40
2023-03-17T19:16:50.262Z,15.40
2023-03-17T19:22:14.537Z,15.30
2023-03-17T19:25:09.313Z,15.30
2023-03-17T19:28:10.458Z,15.20
2023-03-17T19:30:46.232Z,15.20
2023-03-17T19:33:18.368Z,15.10
2023-03-17T19:35:55.298Z,15.20
2023-03-17T19:41:35.365Z,15.10
2023-03-17T19:46:46.986Z,14.90
2023-03-17T19:49:17.545Z,14.90
2023-03-17T19:51:48.203Z,14.90
2023-03-17T19:54:23.263Z,14.80
2023-03-17T19:56:51.540Z,14.70
2023-03-17T19:59:20.103Z,14.70
2023-03-17T20:01:49.363Z,14.60
2023-03-17T20:04:21.685Z,14.60
2023-03-17T20:06:55.331Z,14.70
2023-03-17T20:09:27.951Z,14.60
2023-03-17T20:11:59.853Z,14.60
2023-03-17T20:14:27.889Z,14.50
2023-03-17T20:16:57.402Z,14.50
2023-03-17T20:19:42.916Z,14.50
2023-03-17T20:22:13.660Z,14.50
2023-03-17T20:24:41.048Z,14.40
2023-03-17T20:27:10.559Z,14.40
2023-03-17T20:29:39.939Z,14.30
2023-03-17T20:32:08.064Z,14.40
2023-03-17T20:34:37.530Z,14.30
2023-03-17T20:37:05.556Z,14.20
2023-03-17T20:39:33.987Z,14.30
2023-03-17T20:42:06.817Z,14.30
2023-03-17T20:44:35.782Z,14.30
2023-03-17T20:47:04.250Z,14.20
2023-03-17T20:49:34.770Z,14.20
2023-03-17T20:52:15.946Z,14.20
2023-03-17T20:54:44.282Z,14.20
2023-03-17T20:57:24.600Z,14.10
2023-03-17T20:59:52.065Z,14.20
2023-03-17T21:02:24.746Z,14.20
2023-03-17T21:04:53.318Z,14.20
2023-03-17T21:07:21.943Z,14.20
2023-03-17T21:09:49.005Z,14.10
2023-03-17T21:12:20.518Z,14.10
2023-03-17T21:14:53.074Z,14.00
2023-03-17T21:17:20.002Z,14.00
2023-03-17T21:19:48.599Z,14.10
2023-03-17T21:22:26.411Z,14.10
2023-03-17T21:24:54.350Z,14.20
2023-03-17T21:30:15.412Z,14.00
2023-03-17T21:32:43.517Z,14.00
2023-03-17T21:35:14.385Z,13.90
2023-03-17T21:37:46.851Z,13.80
2023-03-17T21:40:21.834Z,13.70
2023-03-17T21:42:58.675Z,13.70
2023-03-17T21:45:25.988Z,13.70
2023-03-17T21:47:53.309Z,13.60
2023-03-17T21:50:29.241Z,13.60
2023-03-17T21:53:01.372Z,13.60
2023-03-17T21:55:43.748Z,13.60
2023-03-17T21:58:15.852Z,13.50
2023-03-17T22:00:47.741Z,13.50
2023-03-17T22:03:18.879Z,13.50
2023-03-17T22:08:44.604Z,13.40
2023-03-17T22:11:27.366Z,13.40
2023-03-17T22:14:12.434Z,13.50
2023-03-17T22:16:53.523Z,13.50
2023-03-17T22:19:47.026Z,13.50
2023-03-17T22:22:36.314Z,13.50
2023-03-17T22:25:06.786Z,13.60
2023-03-17T22:27:44.314Z,13.60
2023-03-17T22:35:56.983Z,13.50
2023-03-17T22:38:36.138Z,13.50
2023-03-17T22:44:44.337Z,13.40
2023-03-17T22:47:42.718Z,13.50
2023-03-17T22:50:11.990Z,13.40
2023-03-17T22:52:39.442Z,13.50
2023-03-17T22:55:15.131Z,13.50
2023-03-17T22:57:42.153Z,13.50
2023-03-17T23:00:16.800Z,13.40
2023-03-17T23:02:46.666Z,13.40
2023-03-17T23:05:15.071Z,13.40
2023-03-17T23:07:51.768Z,13.30
2023-03-17T23:10:25.026Z,13.30
2023-03-17T23:12:52.919Z,13.20
2023-03-17T23:15:25.361Z,13.30
2023-03-17T23:18:04.130Z,13.20
2023-03-17T23:20:31.763Z,13.20
2023-03-17T23:22:59.984Z,13.20
2023-03-17T23:25:36.863Z,13.00
2023-03-17T23:30:48.989Z,13.10
2023-03-17T23:33:21.828Z,13.00
2023-03-17T23:35:50.336Z,13.00
2023-03-17T23:38:24.229Z,13.10
2023-03-17T23:40:57.318Z,13.00
2023-03-17T23:43:26.796Z,13.00
2023-03-17T23:45:55.667Z,13.10
2023-03-17T23:48:23.169Z,13.00
2023-03-17T23:50:55.060Z,12.80
2023-03-17T23:53:24.373Z,12.80
2023-03-17T23:55:53.256Z,12.70
